Aeroporto :
LOGIN :

Iscrizione | Disclaimer

   EN    FR    IT 

 










Sommario :    VFR   VFR Marginale   IFR   IFR Intensivo   IFR Molto Intensivo
Visibilità : 
Base nubi : 
>= 8 km
>= 3000ft
5 / 8 km
1000 / 3000 ft
1500m / 5 km
500 / 1000 ft
800 / 1500m
200 / 500 ft
< 800m
< 200 ft
Simboli :   Temporali  Nebbia  Neve Forte  Precipitazioni Forti  Vento > 20 kt
SIGMETs :   Varie  Temporali  Ghiacco  Turbolenza  Onda orograficha  Ceneri Vulcaniche






- Altitudine del aeroporto : 856 ft
- Codice IATA : VGO


LEVX - Vigo Peinador

ULTIMO METAR :
  • 301830Z 06015G25KT 030V110 CAVOK 08/M03 Q1012 NOSIG

METARs OBSOLETI :
  • 301800Z 07014KT 030V120 9999 BKN054 09/M02 Q1012 NOSIG
  • 301730Z 07013G24KT 010V100 9999 BKN054 10/M01 Q1011 NOSIG
  • 301700Z 08009KT 040V110 9999 BKN054 11/M00 Q1011 NOSIG
  • 301630Z 09008KT 040V150 9999 BKN054 11/01 Q1012 NOSIG
  • 301600Z 10009G20KT 050V160 CAVOK 13/01 Q1012 NOSIG

TAF TAF LEVX
Valido dal 30 a 18 ore il 31 a 18 ore UTC


301700Z 3018/3118 08009KT 9999 SCT040 TX12/3115Z TN03/3106Z
PROB40
TEMPO 3018/3024 08015G25KT



MetMap, La meteo Aeronautica in un colpo d'occhio ! - Copyright ORBIFLY Dicembre 2007 - Disclaimer

ORBIFLY MET'MAP TEAM :

Programmazione e sviluppo : Alexandra Zaïnal
Concezione : Baudouin d'Aumeries
Aiuto per la programmazione : Marc-Olivier Méhu
Supporto tecnico e logistico : Manuel Goepfert
Aiuto per la traduzione : Arnaldo La Scala

Contatto : metmap@orbifly.com




FONTI E CREDITI :

   NOAA